Time;durP1;ratioP1;P1;durP2;ratioP2;P2;SDS_P1;SDS_P2;PMS_P1;PMS_P2;Temp;Humidity;BMP_temperature;BMP_pressure;BME280_temperature;BME280_humidity;BME280_pressure;Samples;Min_cycle;Max_cycle;Signal;HPM_P1;HPM_P2
2022/06/09 00:01:00;;;;;;;122.57;116.47;;;;;;;;;;5033889;28;20044;-61
2022/06/09 00:03:32;;;;;;;128.38;122.00;;;;;;;;;;5034291;28;20411;-61
2022/06/09 00:05:57;;;;;;;102.00;96.93;;;;;;;;;;5033179;28;20029;-61
2022/06/09 00:08:24;;;;;;;102.03;96.95;;;;;;;;;;5033479;28;20064;-61
2022/06/09 00:10:56;;;;;;;81.10;77.05;;;;;;;;;;5036089;28;20025;-61
2022/06/09 00:13:22;;;;;;;94.32;89.53;;;;;;;;;;5033480;28;20566;-61
2022/06/09 00:15:48;;;;;;;122.28;116.22;;;;;;;;;;5036247;28;20072;-61
2022/06/09 00:18:14;;;;;;;101.78;96.70;;;;;;;;;;5034479;28;20026;-61
2022/06/09 00:20:39;;;;;;;99.57;94.65;;;;;;;;;;5031064;28;20017;-61
2022/06/09 00:23:05;;;;;;;125.32;119.07;;;;;;;;;;5031062;28;20025;-61
2022/06/09 00:25:30;;;;;;;135.30;128.57;;;;;;;;;;5031974;28;20056;-61
2022/06/09 00:27:55;;;;;;;129.10;122.65;;;;;;;;;;5034002;28;20116;-61
2022/06/09 00:30:21;;;;;;;111.32;105.75;;;;;;;;;;5033401;28;20471;-61
2022/06/09 00:32:46;;;;;;;114.95;109.25;;;;;;;;;;5035973;28;20447;-62
2022/06/09 00:35:12;;;;;;;95.50;90.72;;;;;;;;;;5032501;28;20037;-63
2022/06/09 00:37:37;;;;;;;84.82;80.55;;;;;;;;;;5034468;28;20044;-63
2022/06/09 00:40:06;;;;;;;89.50;85.03;;;;;;;;;;5034428;28;20029;-64
2022/06/09 00:42:34;;;;;;;72.15;68.53;;;;;;;;;;5033508;28;20447;-64
2022/06/09 00:45:25;;;;;;;69.60;66.10;;;;;;;;;;5034844;28;20029;-64
2022/06/09 00:47:57;;;;;;;61.20;57.92;;;;;;;;;;5032472;28;20509;-65
2022/06/09 00:50:25;;;;;;;57.50;54.60;;;;;;;;;;5032439;28;20463;-65
2022/06/09 00:52:56;;;;;;;64.93;61.65;;;;;;;;;;5035539;28;20102;-64
2022/06/09 00:55:26;;;;;;;82.07;78.00;;;;;;;;;;5034289;28;20408;-64
2022/06/09 00:57:58;;;;;;;87.75;83.38;;;;;;;;;;5033058;28;20029;-65
2022/06/09 01:00:34;;;;;;;59.15;56.20;;;;;;;;;;5031998;28;20021;-64
2022/06/09 01:03:00;;;;;;;61.63;58.53;;;;;;;;;;5033908;28;20400;-64
2022/06/09 01:05:30;;;;;;;50.75;48.15;;;;;;;;;;5031214;28;20025;-64
2022/06/09 01:08:00;;;;;;;65.38;62.08;;;;;;;;;;5035190;28;20040;-63
2022/06/09 01:10:29;;;;;;;57.45;54.55;;;;;;;;;;5033642;28;20021;-63
2022/06/09 01:12:55;;;;;;;52.20;49.40;;;;;;;;;;5030761;28;20418;-64
2022/06/09 01:15:23;;;;;;;55.08;52.28;;;;;;;;;;5032480;28;20140;-64
2022/06/09 01:18:19;;;;;;;37.97;36.05;;;;;;;;;;5017372;28;20026;-64
2022/06/09 01:20:48;;;;;;;43.35;41.10;;;;;;;;;;5031199;28;20049;-64
2022/06/09 01:23:47;;;;;;;55.35;52.60;;;;;;;;;;5032341;28;20134;-64
2022/06/09 01:26:24;;;;;;;30.08;28.45;;;;;;;;;;5034626;28;20044;-64
2022/06/09 01:29:15;;;;;;;21.50;20.33;;;;;;;;;;5035603;28;20124;-64
2022/06/09 01:31:50;;;;;;;20.63;19.48;;;;;;;;;;5036514;28;20030;-64
2022/06/09 01:34:33;;;;;;;25.80;24.40;;;;;;;;;;5035928;28;20541;-64
2022/06/09 01:37:03;;;;;;;29.88;28.30;;;;;;;;;;5034140;28;20068;-64
2022/06/09 01:39:50;;;;;;;29.73;28.15;;;;;;;;;;5038282;28;20029;-63
2022/06/09 01:42:36;;;;;;;30.75;29.15;;;;;;;;;;5023613;28;20107;-63
2022/06/09 01:45:08;;;;;;;36.85;34.95;;;;;;;;;;5034817;28;20421;-63
2022/06/09 01:47:43;;;;;;;33.47;31.77;;;;;;;;;;5032243;28;20044;-63
2022/06/09 01:50:14;;;;;;;39.75;37.75;;;;;;;;;;5032341;28;20037;-64
2022/06/09 01:52:42;;;;;;;36.60;34.70;;;;;;;;;;5030811;28;20053;-63
2022/06/09 01:55:13;;;;;;;47.20;44.80;;;;;;;;;;5034996;28;20033;-64
2022/06/09 01:57:40;;;;;;;;;;;;;;;;;;5035850;28;20025;-63
2022/06/09 02:00:15;;;;;;;44.05;41.85;;;;;;;;;;5031843;28;19967;-63
2022/06/09 02:03:07;;;;;;;43.20;41.00;;;;;;;;;;5035629;28;20039;-63
2022/06/09 02:05:37;;;;;;;56.97;54.13;;;;;;;;;;5031301;28;20038;-63
2022/06/09 02:08:05;;;;;;;44.95;42.67;;;;;;;;;;5034705;28;20625;-63
2022/06/09 02:10:44;;;;;;;43.90;41.60;;;;;;;;;;5033812;28;20491;-63
2022/06/09 02:13:17;;;;;;;32.17;30.50;;;;;;;;;;5032778;28;20122;-63
2022/06/09 02:15:46;;;;;;;32.55;30.85;;;;;;;;;;5028129;28;20037;-63
2022/06/09 02:18:21;;;;;;;30.27;28.67;;;;;;;;;;5032350;28;20051;-63
2022/06/09 02:21:01;;;;;;;29.77;28.17;;;;;;;;;;5031018;28;20037;-63
2022/06/09 02:23:27;;;;;;;31.85;30.15;;;;;;;;;;5034944;28;20082;-63
2022/06/09 02:25:52;;;;;;;40.45;38.35;;;;;;;;;;5033718;28;20021;-63
2022/06/09 02:28:18;;;;;;;63.10;59.95;;;;;;;;;;5033767;28;20074;-63
2022/06/09 02:30:44;;;;;;;61.90;58.80;;;;;;;;;;5034075;28;20033;-63
2022/06/09 02:33:10;;;;;;;49.15;46.65;;;;;;;;;;5034912;28;20079;-63
2022/06/09 02:35:37;;;;;;;53.13;50.45;;;;;;;;;;5031436;28;20075;-63
2022/06/09 02:38:02;;;;;;;51.78;49.17;;;;;;;;;;5033565;28;20108;-63
2022/06/09 02:40:29;;;;;;;48.92;46.33;;;;;;;;;;5032028;28;20029;-63
2022/06/09 02:42:55;;;;;;;72.63;69.03;;;;;;;;;;5033218;28;20044;-63
2022/06/09 02:45:21;;;;;;;59.58;56.58;;;;;;;;;;5034992;28;20647;-63
2022/06/09 02:47:47;;;;;;;63.17;59.97;;;;;;;;;;5030190;28;20040;-63
2022/06/09 02:50:13;;;;;;;46.38;44.03;;;;;;;;;;5032548;28;20033;-63
2022/06/09 02:52:38;;;;;;;57.47;54.58;;;;;;;;;;5031884;28;20041;-62
2022/06/09 02:55:04;;;;;;;37.42;35.47;;;;;;;;;;5031234;28;20108;-62
2022/06/09 02:57:30;;;;;;;29.23;27.60;;;;;;;;;;5034778;28;20025;-63
2022/06/09 02:59:56;;;;;;;36.67;34.80;;;;;;;;;;5033701;28;20028;-62
2022/06/09 03:02:21;;;;;;;32.90;31.17;;;;;;;;;;5030255;28;20034;-63
2022/06/09 03:04:47;;;;;;;49.67;47.08;;;;;;;;;;5033279;28;20506;-63
2022/06/09 03:07:13;;;;;;;57.58;54.67;;;;;;;;;;5030163;28;20466;-63
2022/06/09 03:09:40;;;;;;;56.85;54.00;;;;;;;;;;5032441;28;20036;-63
2022/06/09 03:12:05;;;;;;;55.38;52.58;;;;;;;;;;5030751;28;20025;-62
2022/06/09 03:14:31;;;;;;;57.25;54.38;;;;;;;;;;5029842;28;20372;-62
2022/06/09 03:16:57;;;;;;;61.15;57.88;;;;;;;;;;5032118;28;20122;-63
2022/06/09 03:19:22;;;;;;;65.78;62.50;;;;;;;;;;5034105;28;20033;-62
2022/06/09 03:21:48;;;;;;;53.92;51.22;;;;;;;;;;5033014;28;20035;-62
2022/06/09 03:24:13;;;;;;;47.50;45.08;;;;;;;;;;5028969;28;20729;-62
2022/06/09 03:26:38;;;;;;;50.50;47.90;;;;;;;;;;5027781;28;20033;-62
2022/06/09 03:29:04;;;;;;;31.33;29.63;;;;;;;;;;5033770;28;20060;-63
2022/06/09 03:31:29;;;;;;;32.58;30.85;;;;;;;;;;5029777;28;20028;-63
2022/06/09 03:33:55;;;;;;;34.22;32.42;;;;;;;;;;5031465;28;20463;-62
2022/06/09 03:36:20;;;;;;;38.15;36.15;;;;;;;;;;5030183;28;20037;-62
2022/06/09 03:38:45;;;;;;;58.35;55.45;;;;;;;;;;5030376;28;20025;-62
2022/06/09 03:41:11;;;;;;;62.05;58.83;;;;;;;;;;5031117;28;20064;-63
2022/06/09 03:43:36;;;;;;;63.80;60.60;;;;;;;;;;5034334;28;20067;-62
2022/06/09 03:46:03;;;;;;;68.38;64.97;;;;;;;;;;5034472;28;20041;-61
2022/06/09 03:48:29;;;;;;;70.50;67.00;;;;;;;;;;5034600;28;20037;-62
2022/06/09 03:50:54;;;;;;;70.57;67.00;;;;;;;;;;5037216;28;20025;-62
2022/06/09 03:53:19;;;;;;;53.00;50.08;;;;;;;;;;5034948;28;20029;-62
2022/06/09 03:55:46;;;;;;;60.03;57.03;;;;;;;;;;5038448;28;20328;-62
2022/06/09 03:58:11;;;;;;;66.00;62.67;;;;;;;;;;5034751;28;20160;-62
2022/06/09 04:00:36;;;;;;;57.90;54.97;;;;;;;;;;5035676;28;20156;-64
2022/06/09 04:03:03;;;;;;;35.55;33.67;;;;;;;;;;5035036;28;20094;-63
2022/06/09 04:05:29;;;;;;;33.20;31.45;;;;;;;;;;5035287;28;20600;-62
2022/06/09 04:07:54;;;;;;;23.60;22.30;;;;;;;;;;5034941;28;20049;-61
2022/06/09 04:10:23;;;;;;;28.77;27.27;;;;;;;;;;5035613;28;20072;-61
2022/06/09 04:12:49;;;;;;;37.63;35.70;;;;;;;;;;5036060;28;20040;-62
2022/06/09 04:15:15;;;;;;;44.25;42.00;;;;;;;;;;5034091;28;20028;-62
2022/06/09 04:17:41;;;;;;;41.55;39.45;;;;;;;;;;5036918;28;20064;-62
2022/06/09 04:20:08;;;;;;;55.28;52.47;;;;;;;;;;5033979;28;20040;-61
2022/06/09 04:22:33;;;;;;;56.15;53.33;;;;;;;;;;5029051;28;20116;-63
2022/06/09 04:24:59;;;;;;;59.95;56.95;;;;;;;;;;5031291;28;20120;-64
2022/06/09 04:27:24;;;;;;;73.53;69.85;;;;;;;;;;5037139;28;20033;-62
2022/06/09 04:29:50;;;;;;;51.75;49.10;;;;;;;;;;5032659;28;20029;-62
2022/06/09 04:32:16;;;;;;;50.05;47.53;;;;;;;;;;5036280;28;20029;-62
2022/06/09 04:34:42;;;;;;;48.33;45.90;;;;;;;;;;5035501;28;20025;-62
2022/06/09 04:37:08;;;;;;;29.88;28.30;;;;;;;;;;5031528;28;20048;-62
2022/06/09 04:39:33;;;;;;;28.40;26.90;;;;;;;;;;5032821;28;20040;-62
2022/06/09 04:41:59;;;;;;;24.15;22.85;;;;;;;;;;5037184;28;20030;-62
2022/06/09 04:44:24;;;;;;;19.75;18.50;;;;;;;;;;5034166;28;20087;-62
2022/06/09 04:46:49;;;;;;;15.70;14.80;;;;;;;;;;5037576;28;20143;-62
2022/06/09 04:49:15;;;;;;;18.55;17.52;;;;;;;;;;5037861;28;20128;-61
2022/06/09 04:51:40;;;;;;;21.95;20.77;;;;;;;;;;5036692;28;20060;-62
2022/06/09 04:54:05;;;;;;;21.85;20.67;;;;;;;;;;5037387;28;20065;-63
2022/06/09 04:56:31;;;;;;;26.70;25.27;;;;;;;;;;5033284;28;20048;-62
2022/06/09 04:58:56;;;;;;;22.98;21.75;;;;;;;;;;5033853;28;20459;-61
2022/06/09 05:01:31;;;;;;;38.25;36.28;;;;;;;;;;5033303;28;20065;-61
2022/06/09 05:03:58;;;;;;;47.65;45.17;;;;;;;;;;5032791;28;20041;-61
2022/06/09 05:06:25;;;;;;;45.22;42.92;;;;;;;;;;5028112;28;20041;-61
2022/06/09 05:08:53;;;;;;;59.15;56.17;;;;;;;;;;5031919;28;20728;-62
2022/06/09 05:11:19;;;;;;;52.88;50.20;;;;;;;;;;5034534;28;20040;-62
2022/06/09 05:13:44;;;;;;;52.83;50.15;;;;;;;;;;5034582;28;20029;-61
2022/06/09 05:16:10;;;;;;;70.03;66.55;;;;;;;;;;5033571;28;20405;-61
2022/06/09 05:18:37;;;;;;;55.28;52.50;;;;;;;;;;5035767;28;20022;-61
2022/06/09 05:21:03;;;;;;;52.30;49.67;;;;;;;;;;5036175;28;20463;-61
2022/06/09 05:23:29;;;;;;;33.55;31.80;;;;;;;;;;5032957;28;20029;-61
2022/06/09 05:25:57;;;;;;;24.95;23.55;;;;;;;;;;5032333;28;20041;-61
2022/06/09 05:28:24;;;;;;;22.02;20.83;;;;;;;;;;5033334;28;20494;-61
2022/06/09 05:30:50;;;;;;;26.52;25.13;;;;;;;;;;5035510;28;20033;-60
2022/06/09 05:33:15;;;;;;;28.30;26.80;;;;;;;;;;5030763;28;20037;-60
2022/06/09 05:35:41;;;;;;;17.75;16.73;;;;;;;;;;5031578;28;20021;-60
2022/06/09 05:46:19;;;;;;;23.15;21.92;;;;;;;;;;5031717;28;20041;-60
2022/06/09 05:48:45;;;;;;;23.95;22.65;;;;;;;;;;5033786;28;20034;-61
2022/06/09 05:51:12;;;;;;;19.60;18.50;;;;;;;;;;5027939;28;20103;-60
2022/06/09 05:53:38;;;;;;;23.08;21.88;;;;;;;;;;5034328;28;20112;-60
2022/06/09 05:56:05;;;;;;;19.05;18.00;;;;;;;;;;5035516;28;20503;-61
2022/06/09 05:58:30;;;;;;;18.05;17.05;;;;;;;;;;5031420;28;20522;-61
2022/06/09 06:00:57;;;;;;;19.08;17.98;;;;;;;;;;5030415;28;20041;-61
2022/06/09 06:03:22;;;;;;;21.60;20.40;;;;;;;;;;5035244;28;20025;-61
2022/06/09 06:08:32;;;;;;;11.48;10.77;;;;;;;;;;5035420;28;20030;-60
2022/06/09 06:10:57;;;;;;;11.70;11.00;;;;;;;;;;5037267;28;20032;-61
2022/06/09 06:13:23;;;;;;;16.48;15.55;;;;;;;;;;5032871;28;20547;-61
2022/06/09 06:15:49;;;;;;;14.95;14.10;;;;;;;;;;5032284;28;20027;-61
2022/06/09 06:18:15;;;;;;;15.23;13.88;;;;;;;;;;5034354;28;20033;-61
2022/06/09 06:20:40;;;;;;;14.40;13.60;;;;;;;;;;5033821;28;20087;-61
2022/06/09 06:23:05;;;;;;;14.85;13.82;;;;;;;;;;5031336;28;20026;-61
2022/06/09 06:25:31;;;;;;;24.90;23.60;;;;;;;;;;5032931;28;20036;-61
2022/06/09 06:27:58;;;;;;;14.65;13.35;;;;;;;;;;5035564;28;20032;-61
2022/06/09 06:30:23;;;;;;;16.05;15.15;;;;;;;;;;5035616;28;20055;-61
2022/06/09 06:32:50;;;;;;;14.48;13.63;;;;;;;;;;5030165;28;20366;-61
2022/06/09 06:35:15;;;;;;;17.63;16.63;;;;;;;;;;5031340;28;20029;-62
2022/06/09 06:37:41;;;;;;;15.13;14.23;;;;;;;;;;5027886;28;20039;-61
2022/06/09 06:40:10;;;;;;;15.70;14.80;;;;;;;;;;5029862;28;20497;-61
2022/06/09 06:42:35;;;;;;;16.65;15.65;;;;;;;;;;5030848;28;20033;-62
2022/06/09 06:45:01;;;;;;;16.10;15.20;;;;;;;;;;5033352;28;20045;-62
2022/06/09 06:47:26;;;;;;;14.85;14.05;;;;;;;;;;5035386;28;20044;-63
2022/06/09 06:49:51;;;;;;;17.98;16.98;;;;;;;;;;5036086;28;20057;-62
2022/06/09 06:52:16;;;;;;;15.85;14.95;;;;;;;;;;5032786;28;20611;-63
2022/06/09 06:54:42;;;;;;;19.95;18.80;;;;;;;;;;5033096;28;20510;-62
2022/06/09 06:57:08;;;;;;;21.13;19.80;;;;;;;;;;5027077;28;20443;-62
2022/06/09 06:59:33;;;;;;;23.80;20.33;;;;;;;;;;5033977;28;20037;-61
2022/06/09 07:01:59;;;;;;;21.98;20.77;;;;;;;;;;5032884;28;20033;-62
2022/06/09 07:04:24;;;;;;;23.00;21.17;;;;;;;;;;5032915;28;20526;-62
2022/06/09 07:06:50;;;;;;;22.98;21.77;;;;;;;;;;5029347;28;20029;-62
2022/06/09 07:09:15;;;;;;;21.92;20.73;;;;;;;;;;5034160;28;20029;-62
2022/06/09 07:11:41;;;;;;;21.65;20.45;;;;;;;;;;5030698;28;20161;-62
2022/06/09 07:14:06;;;;;;;22.00;20.80;;;;;;;;;;5032755;28;20032;-62
2022/06/09 07:16:33;;;;;;;24.13;22.50;;;;;;;;;;5036648;28;20443;-62
2022/06/09 07:18:58;;;;;;;18.75;17.75;;;;;;;;;;5032091;28;20483;-62
2022/06/09 07:21:23;;;;;;;18.95;17.95;;;;;;;;;;5035364;28;20115;-62
2022/06/09 07:23:49;;;;;;;22.58;21.38;;;;;;;;;;5033879;28;20052;-62
2022/06/09 07:26:14;;;;;;;18.65;17.58;;;;;;;;;;5037175;28;20307;-62
2022/06/09 07:28:40;;;;;;;20.65;19.55;;;;;;;;;;5034326;28;20033;-62
2022/06/09 07:31:06;;;;;;;14.95;14.13;;;;;;;;;;5033082;28;20538;-62
2022/06/09 07:33:34;;;;;;;18.40;17.40;;;;;;;;;;5034270;28;20025;-62
2022/06/09 07:36:00;;;;;;;20.58;19.48;;;;;;;;;;5033651;28;20048;-62
2022/06/09 07:38:27;;;;;;;19.65;18.55;;;;;;;;;;5035741;28;20037;-62
2022/06/09 07:40:53;;;;;;;19.38;18.00;;;;;;;;;;5031671;28;20047;-62
2022/06/09 07:43:19;;;;;;;16.08;15.18;;;;;;;;;;5035529;28;20378;-62
2022/06/09 07:45:46;;;;;;;18.00;17.00;;;;;;;;;;5034867;28;20056;-62
2022/06/09 07:48:11;;;;;;;17.45;16.45;;;;;;;;;;5032844;28;20459;-63
2022/06/09 07:50:38;;;;;;;19.90;18.80;;;;;;;;;;5038347;28;20102;-62
2022/06/09 07:53:03;;;;;;;20.50;19.35;;;;;;;;;;5035711;28;20057;-63
2022/06/09 07:55:29;;;;;;;17.85;16.85;;;;;;;;;;5037850;28;20468;-63
2022/06/09 07:57:55;;;;;;;21.95;20.23;;;;;;;;;;5032693;28;20127;-63
2022/06/09 08:00:22;;;;;;;21.27;20.15;;;;;;;;;;5031445;28;20043;-63
2022/06/09 08:02:48;;;;;;;16.75;15.85;;;;;;;;;;5033989;28;20036;-63
2022/06/09 08:05:16;;;;;;;19.95;18.85;;;;;;;;;;5037372;28;20099;-63
2022/06/09 08:07:42;;;;;;;18.27;17.25;;;;;;;;;;5032122;28;20032;-63
2022/06/09 08:10:09;;;;;;;18.27;17.27;;;;;;;;;;5034752;28;20033;-62
2022/06/09 08:12:35;;;;;;;20.80;19.70;;;;;;;;;;5032068;28;20446;-62
2022/06/09 08:15:00;;;;;;;22.70;21.50;;;;;;;;;;5032336;28;20042;-63
2022/06/09 08:17:26;;;;;;;19.45;18.38;;;;;;;;;;5031820;28;20029;-62
2022/06/09 08:19:51;;;;;;;22.05;20.85;;;;;;;;;;5032411;28;20064;-62
2022/06/09 08:22:17;;;;;;;25.08;23.67;;;;;;;;;;5029800;28;20056;-62
2022/06/09 08:24:43;;;;;;;22.60;21.30;;;;;;;;;;5037884;28;20057;-62
2022/06/09 08:27:09;;;;;;;25.23;23.63;;;;;;;;;;5038494;28;20040;-62
2022/06/09 08:29:34;;;;;;;25.25;23.95;;;;;;;;;;5031193;28;20052;-62
2022/06/09 08:32:00;;;;;;;17.92;16.92;;;;;;;;;;5036296;28;20756;-63
2022/06/09 08:34:25;;;;;;;19.63;18.52;;;;;;;;;;5036650;28;20033;-62
2022/06/09 08:36:51;;;;;;;21.35;20.23;;;;;;;;;;5030236;28;20040;-62
2022/06/09 08:39:17;;;;;;;21.83;20.63;;;;;;;;;;5035499;28;20124;-62
2022/06/09 08:41:56;;;;;;;16.08;15.18;;;;;;;;;;5037434;28;20125;-62
2022/06/09 08:44:36;;;;;;;16.77;15.88;;;;;;;;;;5030188;28;20044;-62
2022/06/09 08:47:28;;;;;;;19.23;18.13;;;;;;;;;;5037410;28;20057;-62
2022/06/09 08:50:06;;;;;;;16.17;15.20;;;;;;;;;;5031937;28;20426;-61
2022/06/09 08:52:51;;;;;;;17.48;16.48;;;;;;;;;;5034668;28;20072;-61
2022/06/09 08:55:37;;;;;;;19.42;18.35;;;;;;;;;;5036279;28;20389;-61
2022/06/09 08:58:11;;;;;;;17.63;16.65;;;;;;;;;;5034177;28;20051;-62
2022/06/09 09:00:40;;;;;;;16.05;15.05;;;;;;;;;;5034647;28;20371;-61
2022/06/09 09:03:15;;;;;;;16.60;15.38;;;;;;;;;;5031877;28;20120;-61
2022/06/09 09:05:56;;;;;;;17.42;16.42;;;;;;;;;;5034521;28;20524;-61
2022/06/09 09:08:22;;;;;;;13.82;12.95;;;;;;;;;;5018254;28;20563;-61
2022/06/09 09:11:16;;;;;;;13.30;12.50;;;;;;;;;;5036887;28;20025;-60
2022/06/09 09:13:53;;;;;;;17.45;16.45;;;;;;;;;;5030706;28;20112;-61
2022/06/09 09:16:30;;;;;;;11.15;10.45;;;;;;;;;;5034076;28;20466;-60
2022/06/09 09:19:05;;;;;;;12.60;11.90;;;;;;;;;;5030921;28;20052;-60
2022/06/09 09:21:44;;;;;;;11.95;11.13;;;;;;;;;;5033251;28;20616;-61
2022/06/09 09:24:21;;;;;;;11.18;10.48;;;;;;;;;;5033986;28;20040;-60
2022/06/09 09:26:58;;;;;;;12.10;11.30;;;;;;;;;;5030500;28;20061;-60
2022/06/09 09:29:41;;;;;;;11.55;10.85;;;;;;;;;;5030647;28;20110;-60
2022/06/09 09:32:14;;;;;;;12.43;11.73;;;;;;;;;;5034639;28;20100;-60
2022/06/09 09:34:44;;;;;;;13.73;12.93;;;;;;;;;;5033839;28;20124;-60
2022/06/09 09:37:25;;;;;;;15.90;15.00;;;;;;;;;;5033464;28;20076;-60
2022/06/09 09:40:20;;;;;;;13.35;12.55;;;;;;;;;;5036008;28;20546;-61
2022/06/09 09:42:46;;;;;;;15.27;14.38;;;;;;;;;;5028767;28;20045;-61
2022/06/09 09:45:12;;;;;;;14.90;14.05;;;;;;;;;;5032551;28;20033;-61
2022/06/09 09:47:45;;;;;;;11.93;11.23;;;;;;;;;;5033857;28;20056;-61
2022/06/09 09:50:35;;;;;;;11.52;10.82;;;;;;;;;;5032617;28;20123;-61
2022/06/09 09:53:22;;;;;;;12.55;11.85;;;;;;;;;;5031912;28;20045;-61
2022/06/09 09:55:50;;;;;;;11.23;10.52;;;;;;;;;;5033792;28;20044;-61
2022/06/09 09:58:34;;;;;;;11.90;11.20;;;;;;;;;;5032155;28;20459;-61
2022/06/09 10:01:16;;;;;;;14.15;13.35;;;;;;;;;;5029041;28;20052;-61
2022/06/09 10:09:41;;;;;;;20.33;19.23;;;;;;;;;;5031881;28;20017;-61
2022/06/09 10:12:33;;;;;;;17.48;16.48;;;;;;;;;;5031631;28;20142;-62
2022/06/09 10:15:10;;;;;;;20.50;19.38;;;;;;;;;;5030145;28;20041;-62
2022/06/09 10:17:36;;;;;;;19.33;18.27;;;;;;;;;;5029716;28;20523;-61
2022/06/09 10:20:14;;;;;;;24.50;23.20;;;;;;;;;;5032916;28;20036;-60
2022/06/09 10:22:53;;;;;;;25.30;23.80;;;;;;;;;;5034672;28;20028;-60
2022/06/09 10:25:25;;;;;;;24.10;22.80;;;;;;;;;;5013792;28;20091;-60
2022/06/09 10:28:11;;;;;;;33.38;31.67;;;;;;;;;;5030397;28;20026;-59
2022/06/09 10:30:48;;;;;;;39.97;37.30;;;;;;;;;;5030815;28;20083;-59
2022/06/09 10:33:26;;;;;;;32.85;30.65;;;;;;;;;;5028905;28;20047;-59
2022/06/09 10:35:58;;;;;;;33.28;31.38;;;;;;;;;;5031899;28;20045;-60
2022/06/09 10:38:39;;;;;;;48.30;45.88;;;;;;;;;;5032427;28;20043;-60
2022/06/09 10:41:12;;;;;;;38.80;36.83;;;;;;;;;;5035133;28;20116;-59
2022/06/09 10:44:15;;;;;;;49.00;46.50;;;;;;;;;;5030196;28;20498;-60
2022/06/09 10:55:14;;;;;;;42.88;40.67;;;;;;;;;;5029257;28;20048;-60
2022/06/09 10:55:42;;;;;;;33.85;32.10;;;;;;;;;;5031495;28;20018;-60
2022/06/09 10:58:18;;;;;;;37.40;35.50;;;;;;;;;;5030311;28;20043;-60
2022/06/09 11:00:48;;;;;;;33.10;31.40;;;;;;;;;;5030691;28;20044;-60
2022/06/09 11:03:23;;;;;;;43.97;41.78;;;;;;;;;;5030911;28;20036;-60
2022/06/09 11:05:52;;;;;;;44.10;41.83;;;;;;;;;;5029886;28;20546;-60
2022/06/09 11:08:35;;;;;;;48.33;45.88;;;;;;;;;;5029488;28;20033;-60
2022/06/09 11:11:15;;;;;;;43.72;41.50;;;;;;;;;;5030701;28;20106;-60
2022/06/09 11:14:27;;;;;;;31.55;29.90;;;;;;;;;;5031171;28;20350;-60
2022/06/09 11:17:16;;;;;;;39.17;37.17;;;;;;;;;;5029032;28;20057;-60
2022/06/09 11:20:07;;;;;;;29.08;27.58;;;;;;;;;;5023859;28;20120;-61
2022/06/09 11:22:56;;;;;;;24.58;23.20;;;;;;;;;;5029329;28;20378;-61
2022/06/09 11:25:30;;;;;;;20.00;18.90;;;;;;;;;;5030349;28;20057;-61
2022/06/09 11:28:16;;;;;;;25.88;24.50;;;;;;;;;;5031578;28;20144;-61
2022/06/09 11:31:20;;;;;;;22.40;21.20;;;;;;;;;;5033445;28;20472;-61
2022/06/09 11:34:27;;;;;;;30.75;29.15;;;;;;;;;;5030503;28;20536;-63
2022/06/09 11:37:29;;;;;;;36.47;34.58;;;;;;;;;;4988388;28;20484;-61
2022/06/09 11:40:13;;;;;;;32.33;30.63;;;;;;;;;;4991459;28;20038;-60
2022/06/09 11:42:46;;;;;;;33.65;31.95;;;;;;;;;;5025662;28;20447;-61
2022/06/09 11:45:46;;;;;;;34.35;32.45;;;;;;;;;;5029257;28;20033;-60
2022/06/09 11:48:21;;;;;;;30.88;29.27;;;;;;;;;;5027164;28;20069;-61
2022/06/09 11:50:47;;;;;;;26.77;25.38;;;;;;;;;;5030235;28;20508;-61
2022/06/09 11:53:25;;;;;;;27.98;26.52;;;;;;;;;;5031224;28;20662;-61
2022/06/09 11:55:57;;;;;;;25.83;24.45;;;;;;;;;;5031597;28;20045;-59
2022/06/09 11:58:31;;;;;;;20.95;19.65;;;;;;;;;;5032748;28;20123;-60
2022/06/09 12:01:08;;;;;;;34.17;32.38;;;;;;;;;;5030320;28;20037;-60
2022/06/09 12:03:53;;;;;;;30.23;28.63;;;;;;;;;;5032841;28;20059;-60
2022/06/09 12:06:22;;;;;;;24.85;23.55;;;;;;;;;;5031713;28;20041;-60
2022/06/09 12:09:19;;;;;;;31.77;30.02;;;;;;;;;;5035091;28;20025;-62
2022/06/09 12:11:52;;;;;;;23.92;22.67;;;;;;;;;;5029540;28;20675;-60
2022/06/09 12:14:23;;;;;;;25.50;24.10;;;;;;;;;;5035864;28;20438;-60
2022/06/09 12:17:01;;;;;;;28.90;27.40;;;;;;;;;;5035298;28;20069;-61
2022/06/09 12:19:35;;;;;;;19.85;18.75;;;;;;;;;;5035166;28;20048;-60
2022/06/09 12:22:32;;;;;;;35.97;33.90;;;;;;;;;;5031679;28;20527;-59
2022/06/09 12:25:23;;;;;;;35.13;33.33;;;;;;;;;;5033846;28;20047;-61
2022/06/09 12:27:50;;;;;;;18.85;17.85;;;;;;;;;;5033070;28;20033;-62
2022/06/09 12:30:19;;;;;;;23.23;22.02;;;;;;;;;;5033275;28;20091;-61
2022/06/09 12:32:46;;;;;;;30.13;28.52;;;;;;;;;;5034528;28;20064;-61
2022/06/09 12:35:27;;;;;;;34.75;32.95;;;;;;;;;;5033782;28;20120;-61
2022/06/09 12:38:01;;;;;;;28.85;27.33;;;;;;;;;;5034961;28;20056;-61
2022/06/09 12:40:34;;;;;;;28.83;27.30;;;;;;;;;;5030439;28;20576;-61
2022/06/09 12:43:21;;;;;;;25.88;24.48;;;;;;;;;;5033440;28;20061;-61
2022/06/09 12:46:03;;;;;;;34.83;33.03;;;;;;;;;;5034988;28;20028;-61
2022/06/09 12:48:30;;;;;;;37.30;35.38;;;;;;;;;;5035492;28;20040;-61
2022/06/09 12:50:56;;;;;;;29.02;27.52;;;;;;;;;;5035587;28;20489;-61
2022/06/09 12:53:26;;;;;;;29.00;27.45;;;;;;;;;;5036092;28;20053;-61
2022/06/09 12:55:59;;;;;;;30.20;28.60;;;;;;;;;;5035020;28;20052;-62
2022/06/09 12:58:46;;;;;;;81.75;77.70;;;;;;;;;;5036291;28;20474;-62
2022/06/09 13:01:18;;;;;;;24.77;23.48;;;;;;;;;;5034023;28;20133;-61
2022/06/09 13:03:57;;;;;;;23.65;22.38;;;;;;;;;;5032246;28;20517;-62
2022/06/09 13:06:29;;;;;;;107.72;102.45;;;;;;;;;;5034094;28;20515;-63
2022/06/09 13:08:58;;;;;;;70.75;67.20;;;;;;;;;;5033953;28;20675;-62
2022/06/09 13:14:23;;;;;;;21.67;20.52;;;;;;;;;;5033403;28;20430;-61
2022/06/09 13:16:52;;;;;;;58.65;55.67;;;;;;;;;;5031674;28;20120;-60
2022/06/09 13:19:21;;;;;;;64.00;60.78;;;;;;;;;;5035069;28;20021;-61
2022/06/09 13:21:48;;;;;;;119.80;113.90;;;;;;;;;;5034527;28;20086;-61
2022/06/09 13:24:32;;;;;;;101.10;96.13;;;;;;;;;;5032850;28;20559;-60
2022/06/09 13:26:58;;;;;;;83.82;79.68;;;;;;;;;;5034830;28;20064;-61
2022/06/09 13:29:28;;;;;;;47.50;45.10;;;;;;;;;;5031309;28;20036;-61
2022/06/09 13:32:29;;;;;;;61.33;58.22;;;;;;;;;;5028577;28;20026;-61
2022/06/09 13:35:00;;;;;;;35.92;34.08;;;;;;;;;;5033958;28;20099;-61
2022/06/09 13:37:42;;;;;;;31.65;30.00;;;;;;;;;;5033427;28;20070;-60
2022/06/09 13:40:09;;;;;;;16.23;15.32;;;;;;;;;;5033112;28;20069;-61
2022/06/09 13:42:47;;;;;;;18.58;17.58;;;;;;;;;;5033188;28;20144;-61
2022/06/09 13:45:23;;;;;;;17.77;16.77;;;;;;;;;;5035345;28;20037;-61
2022/06/09 13:48:12;;;;;;;18.10;17.10;;;;;;;;;;5033288;28;20266;-60
2022/06/09 13:51:06;;;;;;;31.08;29.27;;;;;;;;;;5035036;28;20103;-61
2022/06/09 13:53:43;;;;;;;26.13;24.75;;;;;;;;;;5034061;28;20483;-61
2022/06/09 13:56:10;;;;;;;21.25;19.80;;;;;;;;;;5032733;28;20041;-60
2022/06/09 13:58:35;;;;;;;24.20;22.90;;;;;;;;;;5033170;28;20548;-61
2022/06/09 14:01:04;;;;;;;19.20;18.00;;;;;;;;;;5032741;28;20041;-61
2022/06/09 14:03:34;;;;;;;17.88;16.88;;;;;;;;;;5032069;28;20112;-61
2022/06/09 14:06:06;;;;;;;32.53;30.85;;;;;;;;;;5032809;28;20033;-61
2022/06/09 14:08:34;;;;;;;21.15;20.05;;;;;;;;;;5032655;28;20087;-61
2022/06/09 14:11:00;;;;;;;25.23;23.85;;;;;;;;;;5031123;28;20033;-62
2022/06/09 14:13:26;;;;;;;32.40;30.73;;;;;;;;;;5036247;28;20068;-61
2022/06/09 14:15:52;;;;;;;43.95;41.60;;;;;;;;;;5032660;28;20041;-61
2022/06/09 14:18:23;;;;;;;105.05;99.82;;;;;;;;;;5035084;28;20026;-61
2022/06/09 14:20:49;;;;;;;101.32;96.28;;;;;;;;;;5033879;28;20029;-60
2022/06/09 14:23:35;;;;;;;141.95;135.00;;;;;;;;;;5036160;28;20469;-61
2022/06/09 14:26:17;;;;;;;74.35;70.63;;;;;;;;;;5032804;28;20069;-61
2022/06/09 14:28:44;;;;;;;36.72;34.83;;;;;;;;;;5035172;28;20029;-61
2022/06/09 14:31:13;;;;;;;38.33;36.33;;;;;;;;;;5031552;28;20041;-61
2022/06/09 14:33:39;;;;;;;53.17;50.50;;;;;;;;;;5032030;28;20026;-61
2022/06/09 14:36:04;;;;;;;58.05;55.13;;;;;;;;;;5032776;28;20037;-61
2022/06/09 14:38:29;;;;;;;47.05;44.67;;;;;;;;;;5033082;28;20029;-61
2022/06/09 14:40:55;;;;;;;34.45;32.65;;;;;;;;;;5038597;28;20032;-61
2022/06/09 14:43:21;;;;;;;45.50;43.20;;;;;;;;;;5031714;28;20033;-61
2022/06/09 14:45:53;;;;;;;59.40;56.42;;;;;;;;;;5030274;28;20140;-61
2022/06/09 14:48:21;;;;;;;26.80;25.40;;;;;;;;;;5029573;28;20084;-61
2022/06/09 14:50:47;;;;;;;97.38;92.55;;;;;;;;;;5033484;28;20029;-61
2022/06/09 14:53:14;;;;;;;27.52;26.08;;;;;;;;;;5031018;28;20026;-61
2022/06/09 14:55:41;;;;;;;41.78;39.65;;;;;;;;;;5029330;28;20029;-61
2022/06/09 14:58:07;;;;;;;72.63;69.03;;;;;;;;;;5031086;28;20053;-62
2022/06/09 15:00:35;;;;;;;70.95;67.43;;;;;;;;;;5030995;28;20053;-62
2022/06/09 15:03:01;;;;;;;78.35;74.45;;;;;;;;;;5032064;28;20025;-62
2022/06/09 15:05:28;;;;;;;75.90;72.07;;;;;;;;;;5029991;28;20120;-61